Sch-135 Galibier — PBIB — position and weather

sailwx.info

Track history (hours):
 
Tides and Currents Weather Stations Pressure Air Temp Water Temp Dewpoint Dewpoint Depression Visibility Wind Speed Wind Dir Waves Ship Positions

Sch-135 Galibier

Last reported at 2016-Aug-29 00:05 UTC. Time now 2016-Aug-29 21:37 UTC.
Position N 52°16' E 003°43'.

Length 35 m; draft 4.2 m.

Type: Fishing. MMSI: 244630637.

Date/timePositionNaut miles runAvg speedWind from/ knotsBaromVisibWave heightAir tempDewpointWater temp
2016-Aug-29 00:05N 52°16' E 003°43'5 9.7
2016-Aug-28 23:33N 52°14' E 003°50'9 9.4
2016-Aug-28 22:33N 52°10' E 004°04'8 8.0
2016-Aug-28 21:33N 52°06' E 004°16'0 0.0
2016-Aug-28 20:33N 52°06' E 004°16'0 0.0
2016-Aug-28 19:33N 52°06' E 004°16'0 0.0
2016-Aug-28 18:33N 52°06' E 004°16'0 0.0
2016-Aug-28 17:33N 52°06' E 004°16'0 0.0
2016-Aug-28 16:33N 52°06' E 004°16'0 0.0
2016-Aug-28 15:33N 52°06' E 004°16'0 0.0
2016-Aug-28 14:33N 52°06' E 004°16'0 0.0
2016-Aug-28 13:33N 52°06' E 004°16'0 0.0
2016-Aug-28 12:33N 52°06' E 004°16'0 0.0
2016-Aug-28 11:33N 52°06' E 004°16'0 0.0
2016-Aug-28 10:33N 52°06' E 004°16'0 0.0
2016-Aug-28 09:33N 52°06' E 004°16'0 0.0
2016-Aug-28 08:33N 52°06' E 004°16'0 0.0
2016-Aug-28 07:33N 52°06' E 004°16'0 0.0
2016-Aug-28 06:33N 52°06' E 004°16'0 0.0
2016-Aug-28 05:33N 52°06' E 004°16'0 0.0
2016-Aug-28 04:33N 52°06' E 004°16'0 0.0
2016-Aug-28 03:33N 52°06' E 004°16'0 0.0
2016-Aug-28 02:33N 52°06' E 004°16'0 0.0
2016-Aug-28 01:33N 52°06' E 004°16'0 0.0
2016-Aug-28 00:33N 52°06' E 004°16'0 0.0
2016-Aug-27 23:33N 52°06' E 004°16'0 0.0
2016-Aug-27 22:33N 52°06' E 004°16'0 0.0
2016-Aug-27 21:33N 52°06' E 004°16'0 0.0
2016-Aug-27 20:33N 52°06' E 004°16'0 0.0
2016-Aug-27 19:33N 52°06' E 004°16'0 0.0
2016-Aug-27 18:33N 52°06' E 004°16'0 0.0
2016-Aug-27 17:33N 52°06' E 004°16'0 0.0
2016-Aug-27 16:33N 52°06' E 004°16'0 0.0
2016-Aug-27 15:33N 52°06' E 004°16'0 0.0
2016-Aug-27 14:33N 52°06' E 004°16'0 0.0
2016-Aug-27 13:33N 52°06' E 004°16'0 0.0
2016-Aug-27 12:33N 52°06' E 004°16'0 0.0
2016-Aug-27 11:33N 52°06' E 004°16'0 0.0
2016-Aug-27 10:33N 52°06' E 004°16'0 0.0
2016-Aug-27 09:33N 52°06' E 004°16'0 0.0
2016-Aug-27 08:33N 52°06' E 004°16'0 0.0
2016-Aug-27 07:33N 52°06' E 004°16'0 0.0
2016-Aug-27 06:33N 52°06' E 004°16'0 0.0
2016-Aug-27 04:33N 52°06' E 004°16'0 0.0
2016-Aug-27 03:33N 52°06' E 004°16'0 0.0
2016-Aug-27 02:33N 52°06' E 004°16'0 0.0
2016-Aug-27 01:33N 52°06' E 004°16'0 0.0
2016-Aug-27 00:33N 52°06' E 004°16'0 0.0
2016-Aug-26 23:33N 52°06' E 004°16'0 0.0
2016-Aug-26 22:32N 52°06' E 004°16'0 0.0
2016-Aug-26 21:33N 52°06' E 004°16'0 0.0
2016-Aug-26 20:33N 52°06' E 004°16'0 0.0
2016-Aug-26 19:32N 52°06' E 004°16'0 0.0
2016-Aug-26 18:33N 52°06' E 004°16'0 0.0
2016-Aug-26 17:33N 52°06' E 004°16'0 0.0
2016-Aug-26 16:33N 52°06' E 004°16'0 0.0
2016-Aug-26 15:33N 52°06' E 004°16'0 0.0
2016-Aug-26 14:33N 52°06' E 004°16'0 0.0
2016-Aug-26 13:33N 52°06' E 004°16'0 0.0
2016-Aug-26 12:33N 52°06' E 004°16'0 0.0
2016-Aug-26 11:33N 52°06' E 004°16'0 0.0
2016-Aug-26 10:33N 52°06' E 004°16'0 0.0
2016-Aug-26 09:33N 52°06' E 004°16'0 0.0
2016-Aug-26 08:33N 52°06' E 004°16'0 0.0
2016-Aug-26 07:34N 52°06' E 004°16'0 0.0
2016-Aug-26 06:33N 52°06' E 004°16'0 0.0
2016-Aug-26 04:33N 52°06' E 004°16'0 0.0
2016-Aug-26 03:33N 52°06' E 004°16'0 0.0
2016-Aug-26 02:33N 52°06' E 004°16'0 0.0
2016-Aug-26 01:33N 52°06' E 004°16'0 0.1
2016-Aug-26 00:33N 52°06' E 004°16'5 5.3
2016-Aug-25 23:33N 52°09' E 004°08'1110.7
2016-Aug-25 22:33N 52°11' E 003°51'42 9.8
2016-Aug-25 18:12N 52°25' E 002°45'710.1
2016-Aug-25 17:32N 52°26' E 002°34'7 0.9
2016-Aug-25 10:22N 52°32' E 002°34'1 1.8
2016-Aug-25 09:33N 52°34' E 002°34'4 0.6
2016-Aug-25 03:08N 52°35' E 002°28'4 6.7
2016-Aug-25 02:32N 52°31' E 002°26'8 7.4
2016-Aug-25 01:29N 52°23' E 002°24'7 7.3
2016-Aug-25 00:33N 52°17' E 002°23'8 7.6
2016-Aug-24 23:29N 52°09' E 002°21'8 8.5
2016-Aug-24 22:31N 52°00' E 002°19'8 8.4
2016-Aug-24 21:33N 51°53' E 002°16'9 8.7
2016-Aug-24 20:33N 51°44' E 002°13'1010.3
2016-Aug-24 19:33N 51°34' E 002°11'4 3.7
2016-Aug-24 18:34N 51°30' E 002°09'1 1.0
2016-Aug-24 17:33N 51°29' E 002°08'3 3.0
2016-Aug-24 16:33N 51°28' E 002°04'3 2.7
2016-Aug-24 15:33N 51°26' E 002°01'1 0.8
2016-Aug-24 14:33N 51°27' E 002°01'7 6.7
2016-Aug-24 13:33N 51°22' E 001°55'3 2.9
2016-Aug-24 12:33N 51°23' E 001°51'1 0.7
2016-Aug-24 11:33N 51°24' E 001°52'1 1.1
2016-Aug-24 10:34N 51°25' E 001°53'1 0.8
2016-Aug-24 09:34N 51°25' E 001°52'2 1.5
2016-Aug-24 08:33N 51°24' E 001°51'2 2.0
2016-Aug-24 07:33N 51°22' E 001°53'9 9.3
2016-Aug-24 06:33N 51°13' E 001°59'1 0.7
2016-Aug-24 04:33N 51°13' E 001°57'1 0.6
2016-Aug-24 03:33N 51°13' E 001°58'2 2.1
2016-Aug-24 02:33N 51°14' E 002°01'5 5.1
2016-Aug-24 01:33N 51°11' E 001°54'3 2.9
2016-Aug-24 00:33N 51°13' E 001°58'3 3.2
2016-Aug-23 23:34N 51°10' E 002°01'6 6.0
2016-Aug-23 22:33N 51°12' E 002°10'7 7.3
2016-Aug-23 21:33N 51°17' E 002°19'7 6.5
2016-Aug-23 20:33N 51°16' E 002°29'5 5.5
2016-Aug-23 19:33N 51°18' E 002°37'2 1.5
2016-Aug-23 18:33N 51°17' E 002°37'1 1.0
2016-Aug-23 17:33N 51°16' E 002°36'3 2.9
2016-Aug-23 16:33N 51°16' E 002°31'2 2.0
2016-Aug-23 15:33N 51°15' E 002°29'0 0.2
2016-Aug-23 14:33N 51°15' E 002°29'0 0.3
2016-Aug-23 13:33N 51°15' E 002°29'2 2.0
2016-Aug-23 12:33N 51°16' E 002°31'2 2.2
2016-Aug-23 11:33N 51°18' E 002°31'2 1.9
2016-Aug-23 10:33N 51°16' E 002°32'2 2.4
2016-Aug-23 09:33N 51°16' E 002°36'1 0.9
2016-Aug-23 08:33N 51°17' E 002°37'1 0.7
2016-Aug-23 07:33N 51°17' E 002°35'1 1.0
2016-Aug-23 06:33N 51°16' E 002°34'1 0.7
2016-Aug-23 05:34N 51°15' E 002°35'1 0.7
2016-Aug-23 04:33N 51°15' E 002°34'1 1.0
2016-Aug-23 03:33N 51°14' E 002°34'6 6.0
2016-Aug-23 02:33N 51°15' E 002°44'7 7.5
2016-Aug-23 01:33N 51°14' E 002°55'0 0.3
2016-Aug-23 00:33N 51°14' E 002°56'0 0.0
2016-Aug-22 23:33N 51°14' E 002°56'0 0.0
2016-Aug-22 22:33N 51°14' E 002°56'0 0.0
2016-Aug-22 21:33N 51°14' E 002°56'0 0.0
2016-Aug-22 20:33N 51°14' E 002°56'1 1.2
2016-Aug-22 19:34N 51°15' E 002°54'9 8.6
2016-Aug-22 18:33N 51°16' E 002°41'2 2.3
2016-Aug-22 17:33N 51°18' E 002°38'1 0.8
2016-Aug-22 16:34N 51°17' E 002°38'1 1.2
2016-Aug-22 15:33N 51°16' E 002°37'1 1.3
2016-Aug-22 14:34N 51°15' E 002°35'1 0.6
2016-Aug-22 13:33N 51°15' E 002°36'1 1.1
2016-Aug-22 12:33N 51°16' E 002°36'5 4.5
2016-Aug-22 11:34N 51°15' E 002°29'1 1.5
2016-Aug-22 10:33N 51°16' E 002°30'1 1.5
2016-Aug-22 09:34N 51°18' E 002°30'1 0.7
2016-Aug-22 08:33N 51°18' E 002°31'0 0.5
2016-Aug-22 07:33N 51°19' E 002°31'3 3.0
2016-Aug-22 06:33N 51°16' E 002°30'0 0.1
2016-Aug-22 05:34N 51°16' E 002°30'2 1.9
2016-Aug-22 04:34N 51°14' E 002°29'1 0.6
2016-Aug-22 03:33N 51°15' E 002°29'3 3.2
2016-Aug-22 02:33N 51°17' E 002°32'6 6.1
2016-Aug-22 01:33N 51°20' E 002°41'7 7.2
2016-Aug-22 00:34N 51°21' E 002°52'9 8.6
2016-Aug-21 23:33N 51°23' E 003°06'9 8.8
2016-Aug-21 22:34N 51°25' E 003°19'1010.0
2016-Aug-21 21:33N 51°26' E 003°35'1 0.8
2016-Aug-21 20:33N 51°27' E 003°36'0 0.0
2016-Aug-21 19:33N 51°27' E 003°36'0 0.0
2016-Aug-21 18:33N 51°27' E 003°36'0 0.0
2016-Aug-21 17:33N 51°27' E 003°36'0 0.0
2016-Aug-21 16:33N 51°27' E 003°36'0 0.0
2016-Aug-21 15:33N 51°27' E 003°36'0 0.0
2016-Aug-21 14:33N 51°27' E 003°36'0 0.0
2016-Aug-21 13:33N 51°27' E 003°36'0 0.0
2016-Aug-21 12:33N 51°27' E 003°36'0 0.0
2016-Aug-21 11:33N 51°27' E 003°36'0 0.0
2016-Aug-21 10:33N 51°27' E 003°36'0 0.0
2016-Aug-21 09:33N 51°27' E 003°36'0 0.0
2016-Aug-21 08:33N 51°27' E 003°36'0 0.0
2016-Aug-21 07:33N 51°27' E 003°36'0 0.0
2016-Aug-21 06:33N 51°27' E 003°36'0 0.0
2016-Aug-21 05:33N 51°27' E 003°36'0 0.0
2016-Aug-21 04:33N 51°27' E 003°36'0 0.0
2016-Aug-21 03:33N 51°27' E 003°36'0 0.0
2016-Aug-21 02:33N 51°27' E 003°36'0 0.0
2016-Aug-21 01:33N 51°27' E 003°36'0 0.0
2016-Aug-21 00:33N 51°27' E 003°36'0 0.0
2016-Aug-20 23:33N 51°27' E 003°36'0 0.0
2016-Aug-20 22:33N 51°27' E 003°36'0 0.0
2016-Aug-20 21:33N 51°27' E 003°36'0 0.0
2016-Aug-20 20:33N 51°27' E 003°36'0 0.0
2016-Aug-20 19:33N 51°27' E 003°36'0 0.0
2016-Aug-20 18:33N 51°27' E 003°36'0 0.0
2016-Aug-20 17:33N 51°27' E 003°36'0 0.0
2016-Aug-20 16:33N 51°27' E 003°36'0 0.0
2016-Aug-20 15:33N 51°27' E 003°36'0 0.0
2016-Aug-20 14:33N 51°27' E 003°36'0 0.0
2016-Aug-20 13:33N 51°27' E 003°36'0 0.0
2016-Aug-20 12:33N 51°27' E 003°36'0 0.0
2016-Aug-20 11:33N 51°27' E 003°36'0 0.0
2016-Aug-20 10:33N 51°27' E 003°36'0 0.0
2016-Aug-20 09:33N 51°27' E 003°36'0 0.0
2016-Aug-20 08:33N 51°27' E 003°36'0 0.0
2016-Aug-20 07:33N 51°27' E 003°36'0 0.0
2016-Aug-20 06:33N 51°27' E 003°36'0 0.0
2016-Aug-20 05:33N 51°27' E 003°36'0 0.0
2016-Aug-20 04:33N 51°27' E 003°36'0 0.0
2016-Aug-20 03:33N 51°27' E 003°36'0 0.0
2016-Aug-20 02:33N 51°27' E 003°36'0 0.0
2016-Aug-20 01:33N 51°27' E 003°36'0 0.0
2016-Aug-20 00:33N 51°27' E 003°36'0 0.0
2016-Aug-19 23:33N 51°27' E 003°36'0 0.0
2016-Aug-19 22:33N 51°27' E 003°36'0 0.0
2016-Aug-19 21:33N 51°27' E 003°36'0 0.0
2016-Aug-19 20:33N 51°27' E 003°36'0 0.0
2016-Aug-19 19:33N 51°27' E 003°36'0 0.0
2016-Aug-19 18:33N 51°27' E 003°36'0 0.0
2016-Aug-19 17:33N 51°27' E 003°36'0 0.0
2016-Aug-19 16:33N 51°27' E 003°36'0 0.0
2016-Aug-19 15:33N 51°27' E 003°36'0 0.0
2016-Aug-19 14:33N 51°27' E 003°36'0 0.0
2016-Aug-19 13:33N 51°27' E 003°36'0 0.0
2016-Aug-19 12:33N 51°27' E 003°36'0 0.0
2016-Aug-19 11:33N 51°27' E 003°36'0 0.0
2016-Aug-19 10:33N 51°27' E 003°36'0 0.0
2016-Aug-19 09:33N 51°27' E 003°36'0 0.0
2016-Aug-19 08:33N 51°27' E 003°36'0 0.0
2016-Aug-19 07:33N 51°27' E 003°36'0 0.0
2016-Aug-19 06:33N 51°27' E 003°36'0 0.0
2016-Aug-19 05:33N 51°27' E 003°36'0 0.0
2016-Aug-19 04:33N 51°27' E 003°36'0 0.0
2016-Aug-19 03:33N 51°27' E 003°36'0 0.0
2016-Aug-19 02:33N 51°27' E 003°36'0 0.0
2016-Aug-19 01:33N 51°27' E 003°36'0 0.0
2016-Aug-19 00:33N 51°27' E 003°36'  
Track history (hours):
 
Tides and Currents Weather Stations Pressure Air Temp Water Temp Dewpoint Dewpoint Depression Visibility Wind Speed Wind Dir Waves Ship Positions

Sch-135 Galibier

Last reported at 2016-Aug-29 00:05 UTC. Time now 2016-Aug-29 21:37 UTC.
Position N 52°16' E 003°43'.

Length 35 m; draft 4.2 m.

Type: Fishing. MMSI: 244630637.

Date/timePositionNaut miles runAvg speedWind from/ knotsBaromVisibWave heightAir tempDewpointWater temp
2016-Aug-29 00:05N 52°16' E 003°43'5 9.7
2016-Aug-28 23:33N 52°14' E 003°50'9 9.4
2016-Aug-28 22:33N 52°10' E 004°04'8 8.0
2016-Aug-28 21:33N 52°06' E 004°16'0 0.0
2016-Aug-28 20:33N 52°06' E 004°16'0 0.0
2016-Aug-28 19:33N 52°06' E 004°16'0 0.0
2016-Aug-28 18:33N 52°06' E 004°16'0 0.0
2016-Aug-28 17:33N 52°06' E 004°16'0 0.0
2016-Aug-28 16:33N 52°06' E 004°16'0 0.0
2016-Aug-28 15:33N 52°06' E 004°16'0 0.0
2016-Aug-28 14:33N 52°06' E 004°16'0 0.0
2016-Aug-28 13:33N 52°06' E 004°16'0 0.0
2016-Aug-28 12:33N 52°06' E 004°16'0 0.0
2016-Aug-28 11:33N 52°06' E 004°16'0 0.0
2016-Aug-28 10:33N 52°06' E 004°16'0 0.0
2016-Aug-28 09:33N 52°06' E 004°16'0 0.0
2016-Aug-28 08:33N 52°06' E 004°16'0 0.0
2016-Aug-28 07:33N 52°06' E 004°16'0 0.0
2016-Aug-28 06:33N 52°06' E 004°16'0 0.0
2016-Aug-28 05:33N 52°06' E 004°16'0 0.0
2016-Aug-28 04:33N 52°06' E 004°16'0 0.0
2016-Aug-28 03:33N 52°06' E 004°16'0 0.0
2016-Aug-28 02:33N 52°06' E 004°16'0 0.0
2016-Aug-28 01:33N 52°06' E 004°16'0 0.0
2016-Aug-28 00:33N 52°06' E 004°16'0 0.0
2016-Aug-27 23:33N 52°06' E 004°16'0 0.0
2016-Aug-27 22:33N 52°06' E 004°16'0 0.0
2016-Aug-27 21:33N 52°06' E 004°16'0 0.0
2016-Aug-27 20:33N 52°06' E 004°16'0 0.0
2016-Aug-27 19:33N 52°06' E 004°16'0 0.0
2016-Aug-27 18:33N 52°06' E 004°16'0 0.0
2016-Aug-27 17:33N 52°06' E 004°16'0 0.0
2016-Aug-27 16:33N 52°06' E 004°16'0 0.0
2016-Aug-27 15:33N 52°06' E 004°16'0 0.0
2016-Aug-27 14:33N 52°06' E 004°16'0 0.0
2016-Aug-27 13:33N 52°06' E 004°16'0 0.0
2016-Aug-27 12:33N 52°06' E 004°16'0 0.0
2016-Aug-27 11:33N 52°06' E 004°16'0 0.0
2016-Aug-27 10:33N 52°06' E 004°16'0 0.0
2016-Aug-27 09:33N 52°06' E 004°16'0 0.0
2016-Aug-27 08:33N 52°06' E 004°16'0 0.0
2016-Aug-27 07:33N 52°06' E 004°16'0 0.0
2016-Aug-27 06:33N 52°06' E 004°16'0 0.0
2016-Aug-27 04:33N 52°06' E 004°16'0 0.0
2016-Aug-27 03:33N 52°06' E 004°16'0 0.0
2016-Aug-27 02:33N 52°06' E 004°16'0 0.0
2016-Aug-27 01:33N 52°06' E 004°16'0 0.0
2016-Aug-27 00:33N 52°06' E 004°16'0 0.0
2016-Aug-26 23:33N 52°06' E 004°16'0 0.0
2016-Aug-26 22:32N 52°06' E 004°16'0 0.0
2016-Aug-26 21:33N 52°06' E 004°16'0 0.0
2016-Aug-26 20:33N 52°06' E 004°16'0 0.0
2016-Aug-26 19:32N 52°06' E 004°16'0 0.0
2016-Aug-26 18:33N 52°06' E 004°16'0 0.0
2016-Aug-26 17:33N 52°06' E 004°16'0 0.0
2016-Aug-26 16:33N 52°06' E 004°16'0 0.0
2016-Aug-26 15:33N 52°06' E 004°16'0 0.0
2016-Aug-26 14:33N 52°06' E 004°16'0 0.0
2016-Aug-26 13:33N 52°06' E 004°16'0 0.0
2016-Aug-26 12:33N 52°06' E 004°16'0 0.0
2016-Aug-26 11:33N 52°06' E 004°16'0 0.0
2016-Aug-26 10:33N 52°06' E 004°16'0 0.0
2016-Aug-26 09:33N 52°06' E 004°16'0 0.0
2016-Aug-26 08:33N 52°06' E 004°16'0 0.0
2016-Aug-26 07:34N 52°06' E 004°16'0 0.0
2016-Aug-26 06:33N 52°06' E 004°16'0 0.0
2016-Aug-26 04:33N 52°06' E 004°16'0 0.0
2016-Aug-26 03:33N 52°06' E 004°16'0 0.0
2016-Aug-26 02:33N 52°06' E 004°16'0 0.0
2016-Aug-26 01:33N 52°06' E 004°16'0 0.1
2016-Aug-26 00:33N 52°06' E 004°16'5 5.3
2016-Aug-25 23:33N 52°09' E 004°08'1110.7
2016-Aug-25 22:33N 52°11' E 003°51'42 9.8
2016-Aug-25 18:12N 52°25' E 002°45'710.1
2016-Aug-25 17:32N 52°26' E 002°34'7 0.9
2016-Aug-25 10:22N 52°32' E 002°34'1 1.8
2016-Aug-25 09:33N 52°34' E 002°34'4 0.6
2016-Aug-25 03:08N 52°35' E 002°28'4 6.7
2016-Aug-25 02:32N 52°31' E 002°26'8 7.4
2016-Aug-25 01:29N 52°23' E 002°24'7 7.3
2016-Aug-25 00:33N 52°17' E 002°23'8 7.6
2016-Aug-24 23:29N 52°09' E 002°21'8 8.5
2016-Aug-24 22:31N 52°00' E 002°19'8 8.4
2016-Aug-24 21:33N 51°53' E 002°16'9 8.7
2016-Aug-24 20:33N 51°44' E 002°13'1010.3
2016-Aug-24 19:33N 51°34' E 002°11'4 3.7
2016-Aug-24 18:34N 51°30' E 002°09'1 1.0
2016-Aug-24 17:33N 51°29' E 002°08'3 3.0
2016-Aug-24 16:33N 51°28' E 002°04'3 2.7
2016-Aug-24 15:33N 51°26' E 002°01'1 0.8
2016-Aug-24 14:33N 51°27' E 002°01'7 6.7
2016-Aug-24 13:33N 51°22' E 001°55'3 2.9
2016-Aug-24 12:33N 51°23' E 001°51'1 0.7
2016-Aug-24 11:33N 51°24' E 001°52'1 1.1
2016-Aug-24 10:34N 51°25' E 001°53'1 0.8
2016-Aug-24 09:34N 51°25' E 001°52'2 1.5
2016-Aug-24 08:33N 51°24' E 001°51'2 2.0
2016-Aug-24 07:33N 51°22' E 001°53'9 9.3
2016-Aug-24 06:33N 51°13' E 001°59'1 0.7
2016-Aug-24 04:33N 51°13' E 001°57'1 0.6
2016-Aug-24 03:33N 51°13' E 001°58'2 2.1
2016-Aug-24 02:33N 51°14' E 002°01'5 5.1
2016-Aug-24 01:33N 51°11' E 001°54'3 2.9
2016-Aug-24 00:33N 51°13' E 001°58'3 3.2
2016-Aug-23 23:34N 51°10' E 002°01'6 6.0
2016-Aug-23 22:33N 51°12' E 002°10'7 7.3
2016-Aug-23 21:33N 51°17' E 002°19'7 6.5
2016-Aug-23 20:33N 51°16' E 002°29'5 5.5
2016-Aug-23 19:33N 51°18' E 002°37'2 1.5
2016-Aug-23 18:33N 51°17' E 002°37'1 1.0
2016-Aug-23 17:33N 51°16' E 002°36'3 2.9
2016-Aug-23 16:33N 51°16' E 002°31'2 2.0
2016-Aug-23 15:33N 51°15' E 002°29'0 0.2
2016-Aug-23 14:33N 51°15' E 002°29'0 0.3
2016-Aug-23 13:33N 51°15' E 002°29'2 2.0
2016-Aug-23 12:33N 51°16' E 002°31'2 2.2
2016-Aug-23 11:33N 51°18' E 002°31'2 1.9
2016-Aug-23 10:33N 51°16' E 002°32'2 2.4
2016-Aug-23 09:33N 51°16' E 002°36'1 0.9
2016-Aug-23 08:33N 51°17' E 002°37'1 0.7
2016-Aug-23 07:33N 51°17' E 002°35'1 1.0
2016-Aug-23 06:33N 51°16' E 002°34'1 0.7
2016-Aug-23 05:34N 51°15' E 002°35'1 0.7
2016-Aug-23 04:33N 51°15' E 002°34'1 1.0
2016-Aug-23 03:33N 51°14' E 002°34'6 6.0
2016-Aug-23 02:33N 51°15' E 002°44'7 7.5
2016-Aug-23 01:33N 51°14' E 002°55'0 0.3
2016-Aug-23 00:33N 51°14' E 002°56'0 0.0
2016-Aug-22 23:33N 51°14' E 002°56'0 0.0
2016-Aug-22 22:33N 51°14' E 002°56'0 0.0
2016-Aug-22 21:33N 51°14' E 002°56'0 0.0
2016-Aug-22 20:33N 51°14' E 002°56'1 1.2
2016-Aug-22 19:34N 51°15' E 002°54'9 8.6
2016-Aug-22 18:33N 51°16' E 002°41'2 2.3
2016-Aug-22 17:33N 51°18' E 002°38'1 0.8
2016-Aug-22 16:34N 51°17' E 002°38'1 1.2
2016-Aug-22 15:33N 51°16' E 002°37'1 1.3
2016-Aug-22 14:34N 51°15' E 002°35'1 0.6
2016-Aug-22 13:33N 51°15' E 002°36'1 1.1
2016-Aug-22 12:33N 51°16' E 002°36'5 4.5
2016-Aug-22 11:34N 51°15' E 002°29'1 1.5
2016-Aug-22 10:33N 51°16' E 002°30'1 1.5
2016-Aug-22 09:34N 51°18' E 002°30'1 0.7
2016-Aug-22 08:33N 51°18' E 002°31'0 0.5
2016-Aug-22 07:33N 51°19' E 002°31'3 3.0
2016-Aug-22 06:33N 51°16' E 002°30'0 0.1
2016-Aug-22 05:34N 51°16' E 002°30'2 1.9
2016-Aug-22 04:34N 51°14' E 002°29'1 0.6
2016-Aug-22 03:33N 51°15' E 002°29'3 3.2
2016-Aug-22 02:33N 51°17' E 002°32'6 6.1
2016-Aug-22 01:33N 51°20' E 002°41'7 7.2
2016-Aug-22 00:34N 51°21' E 002°52'9 8.6
2016-Aug-21 23:33N 51°23' E 003°06'9 8.8
2016-Aug-21 22:34N 51°25' E 003°19'1010.0
2016-Aug-21 21:33N 51°26' E 003°35'1 0.8
2016-Aug-21 20:33N 51°27' E 003°36'0 0.0
2016-Aug-21 19:33N 51°27' E 003°36'0 0.0
2016-Aug-21 18:33N 51°27' E 003°36'0 0.0
2016-Aug-21 17:33N 51°27' E 003°36'0 0.0
2016-Aug-21 16:33N 51°27' E 003°36'0 0.0
2016-Aug-21 15:33N 51°27' E 003°36'0 0.0
2016-Aug-21 14:33N 51°27' E 003°36'0 0.0
2016-Aug-21 13:33N 51°27' E 003°36'0 0.0
2016-Aug-21 12:33N 51°27' E 003°36'0 0.0
2016-Aug-21 11:33N 51°27' E 003°36'0 0.0
2016-Aug-21 10:33N 51°27' E 003°36'0 0.0
2016-Aug-21 09:33N 51°27' E 003°36'0 0.0
2016-Aug-21 08:33N 51°27' E 003°36'0 0.0
2016-Aug-21 07:33N 51°27' E 003°36'0 0.0
2016-Aug-21 06:33N 51°27' E 003°36'0 0.0
2016-Aug-21 05:33N 51°27' E 003°36'0 0.0
2016-Aug-21 04:33N 51°27' E 003°36'0 0.0
2016-Aug-21 03:33N 51°27' E 003°36'0 0.0
2016-Aug-21 02:33N 51°27' E 003°36'0 0.0
2016-Aug-21 01:33N 51°27' E 003°36'0 0.0
2016-Aug-21 00:33N 51°27' E 003°36'0 0.0
2016-Aug-20 23:33N 51°27' E 003°36'0 0.0
2016-Aug-20 22:33N 51°27' E 003°36'0 0.0
2016-Aug-20 21:33N 51°27' E 003°36'0 0.0
2016-Aug-20 20:33N 51°27' E 003°36'0 0.0
2016-Aug-20 19:33N 51°27' E 003°36'0 0.0
2016-Aug-20 18:33N 51°27' E 003°36'0 0.0
2016-Aug-20 17:33N 51°27' E 003°36'0 0.0
2016-Aug-20 16:33N 51°27' E 003°36'0 0.0
2016-Aug-20 15:33N 51°27' E 003°36'0 0.0
2016-Aug-20 14:33N 51°27' E 003°36'0 0.0
2016-Aug-20 13:33N 51°27' E 003°36'0 0.0
2016-Aug-20 12:33N 51°27' E 003°36'0 0.0
2016-Aug-20 11:33N 51°27' E 003°36'0 0.0
2016-Aug-20 10:33N 51°27' E 003°36'0 0.0
2016-Aug-20 09:33N 51°27' E 003°36'0 0.0
2016-Aug-20 08:33N 51°27' E 003°36'0 0.0
2016-Aug-20 07:33N 51°27' E 003°36'0 0.0
2016-Aug-20 06:33N 51°27' E 003°36'0 0.0
2016-Aug-20 05:33N 51°27' E 003°36'0 0.0
2016-Aug-20 04:33N 51°27' E 003°36'0 0.0
2016-Aug-20 03:33N 51°27' E 003°36'0 0.0
2016-Aug-20 02:33N 51°27' E 003°36'0 0.0
2016-Aug-20 01:33N 51°27' E 003°36'0 0.0
2016-Aug-20 00:33N 51°27' E 003°36'0 0.0
2016-Aug-19 23:33N 51°27' E 003°36'0 0.0
2016-Aug-19 22:33N 51°27' E 003°36'0 0.0
2016-Aug-19 21:33N 51°27' E 003°36'0 0.0
2016-Aug-19 20:33N 51°27' E 003°36'0 0.0
2016-Aug-19 19:33N 51°27' E 003°36'0 0.0
2016-Aug-19 18:33N 51°27' E 003°36'0 0.0
2016-Aug-19 17:33N 51°27' E 003°36'0 0.0
2016-Aug-19 16:33N 51°27' E 003°36'0 0.0
2016-Aug-19 15:33N 51°27' E 003°36'0 0.0
2016-Aug-19 14:33N 51°27' E 003°36'0 0.0
2016-Aug-19 13:33N 51°27' E 003°36'0 0.0
2016-Aug-19 12:33N 51°27' E 003°36'0 0.0
2016-Aug-19 11:33N 51°27' E 003°36'0 0.0
2016-Aug-19 10:33N 51°27' E 003°36'0 0.0
2016-Aug-19 09:33N 51°27' E 003°36'0 0.0
2016-Aug-19 08:33N 51°27' E 003°36'0 0.0
2016-Aug-19 07:33N 51°27' E 003°36'0 0.0
2016-Aug-19 06:33N 51°27' E 003°36'0 0.0
2016-Aug-19 05:33N 51°27' E 003°36'0 0.0
2016-Aug-19 04:33N 51°27' E 003°36'0 0.0
2016-Aug-19 03:33N 51°27' E 003°36'0 0.0
2016-Aug-19 02:33N 51°27' E 003°36'0 0.0
2016-Aug-19 01:33N 51°27' E 003°36'0 0.0
2016-Aug-19 00:33N 51°27' E 003°36'  

Dump ship's entire track history